Main page
METAR-TAF:

METAR-TAF

Airports :

Faro Airport

Faro, Portugal

latitude: 37-01N, longitude: 007-58W, elevation: 7 m

Current weather observation

The report was made 26 minutes ago, at 11:00 UTC
Wind 2 kt from the South/Southwest
Temperature 15°C
Humidity 94%
Pressure 1017 hPa
Visibility 10 km or more
Few clouds at a height of 2000 ft

METAR: LPFR 061100Z 21002KT 9999 FEW020 15/14 Q1017

Time: 11:26 (11:26 UTC)

Forecast

The report was made 6 hours and 26 minutes ago, at 05:00 UTC
Forecast valid from 06 at 06 UTC to 07 at 06 UTC
Wind 2 kt from variable directions
Visibility 10 km or more
Few clouds at a height of 1200 ft
Becoming
from 06 at 10 UTC to 06 at 13 UTC
Wind 8 kt from the South/Southwest
Visibility 10 km or more
no clouds below 1500 m and no cumulonimbus
Becoming
from 06 at 18 UTC to 06 at 21 UTC
Wind 7 kt from the Northeast

TAF: LPFR 060500Z 0606/0706 VRB02KT 9999 FEW012 BECMG 0610/0613 21008KT CAVOK BECMG 0618/0621 05007KT

Weather observations and forecasts of more than 4000 airports (METAR and TAF reports).

The available stations are represented by yellow and red dots on the map.

Hover mouse over dot to see the name of the station.

Then click to see weather observations and forecasts.

To change the map : click on the green buttons with a black cross to zoom in, on the green button with a dash to zoom out, or on the green arrows for adjacent maps.


METAR-TAF: